Time;durP1;ratioP1;P1;durP2;ratioP2;P2;SDS_P1;SDS_P2;PMS_P1;PMS_P2;Temp;Humidity;BMP_temperature;BMP_pressure;BME280_temperature;BME280_humidity;BME280_pressure;Samples;Min_cycle;Max_cycle;Signal;HPM_P1;HPM_P2
2021/03/07 00:02:23;;;;;;;8.18;3.65;;;;;;;;;;5053008;28;20009;-82
2021/03/07 00:04:49;;;;;;;7.10;3.53;;;;;;;;;;5050724;28;20108;-73
2021/03/07 00:07:15;;;;;;;6.10;3.30;;;;;;;;;;5049671;28;20013;-87
2021/03/07 00:09:42;;;;;;;6.55;3.40;;;;;;;;;;5050625;28;20090;-68
2021/03/07 00:12:08;;;;;;;6.50;3.22;;;;;;;;;;5052022;28;20021;-67
2021/03/07 00:14:34;;;;;;;7.25;3.45;;;;;;;;;;5052018;28;20094;-79
2021/03/07 00:17:00;;;;;;;7.00;3.08;;;;;;;;;;5051698;28;20044;-77
2021/03/07 00:19:26;;;;;;;7.07;3.47;;;;;;;;;;5053311;28;20021;-72
2021/03/07 00:21:53;;;;;;;8.45;3.45;;;;;;;;;;5050380;28;20110;-73
2021/03/07 00:24:19;;;;;;;7.05;3.45;;;;;;;;;;5032302;28;20045;-83
2021/03/07 00:26:45;;;;;;;18.10;3.55;;;;;;;;;;5047738;28;20029;-71
2021/03/07 00:29:11;;;;;;;5.63;3.10;;;;;;;;;;5032455;28;20021;-78
2021/03/07 00:31:38;;;;;;;6.55;3.33;;;;;;;;;;5032358;28;20033;-80
2021/03/07 00:34:04;;;;;;;6.95;2.95;;;;;;;;;;5032357;28;20034;-74
2021/03/07 00:36:30;;;;;;;5.97;3.15;;;;;;;;;;5047459;28;20033;-73
2021/03/07 00:38:56;;;;;;;6.07;3.05;;;;;;;;;;5033985;28;20025;-73
2021/03/07 00:41:22;;;;;;;5.97;3.17;;;;;;;;;;5051792;28;20481;-76
2021/03/07 00:43:48;;;;;;;6.07;3.25;;;;;;;;;;5052071;28;20675;-76
2021/03/07 00:46:14;;;;;;;5.60;2.97;;;;;;;;;;5051978;28;20029;-83
2021/03/07 00:51:25;;;;;;;6.30;3.05;;;;;;;;;;5051887;28;20044;-71
2021/03/07 00:53:51;;;;;;;5.88;2.80;;;;;;;;;;5050730;28;20133;-71
2021/03/07 00:56:17;;;;;;;6.43;3.70;;;;;;;;;;5046314;28;20017;-79
2021/03/07 00:58:43;;;;;;;7.53;3.28;;;;;;;;;;5047680;28;20033;-72
2021/03/07 01:01:09;;;;;;;5.82;3.13;;;;;;;;;;5032389;28;20026;-81
2021/03/07 01:03:35;;;;;;;5.35;2.97;;;;;;;;;;5032154;28;20056;-85
2021/03/07 01:06:02;;;;;;;6.22;3.10;;;;;;;;;;5031913;28;20030;-71
2021/03/07 01:08:28;;;;;;;5.75;2.80;;;;;;;;;;5031781;28;20032;-76
2021/03/07 01:10:54;;;;;;;6.25;2.95;;;;;;;;;;5050030;28;20501;-68
2021/03/07 01:13:20;;;;;;;6.40;3.08;;;;;;;;;;5050972;28;20021;-67
2021/03/07 01:15:47;;;;;;;6.22;2.45;;;;;;;;;;5050664;28;20528;-68
2021/03/07 01:18:13;;;;;;;5.55;2.83;;;;;;;;;;5051361;28;20032;-74
2021/03/07 01:20:40;;;;;;;4.93;2.60;;;;;;;;;;5050788;28;20027;-70
2021/03/07 01:23:07;;;;;;;7.32;3.22;;;;;;;;;;5053635;28;20473;-69
2021/03/07 01:25:33;;;;;;;5.43;2.70;;;;;;;;;;5054567;28;20025;-76
2021/03/07 01:28:03;;;;;;;6.95;2.95;;;;;;;;;;5054678;28;20021;-73
2021/03/07 01:30:30;;;;;;;5.95;2.97;;;;;;;;;;5054080;28;20029;-71
2021/03/07 01:32:56;;;;;;;9.45;2.70;;;;;;;;;;5055395;28;20017;-76
2021/03/07 01:35:22;;;;;;;4.85;2.70;;;;;;;;;;5055499;28;20025;-76
2021/03/07 01:37:49;;;;;;;5.25;2.80;;;;;;;;;;5055983;28;20089;-70
2021/03/07 01:40:17;;;;;;;4.90;2.80;;;;;;;;;;5056175;28;20100;-70
2021/03/07 01:42:47;;;;;;;5.22;2.60;;;;;;;;;;5055611;28;20232;-70
2021/03/07 01:45:13;;;;;;;5.72;2.88;;;;;;;;;;5053831;28;20468;-71
2021/03/07 01:47:43;;;;;;;4.78;2.60;;;;;;;;;;5044904;28;20021;-73
2021/03/07 01:50:09;;;;;;;6.70;3.28;;;;;;;;;;5050248;28;20094;-76
2021/03/07 01:52:36;;;;;;;7.78;2.95;;;;;;;;;;5044651;28;20025;-76
2021/03/07 01:55:02;;;;;;;7.10;2.90;;;;;;;;;;5055328;28;20027;-87
2021/03/07 01:57:29;;;;;;;5.78;2.90;;;;;;;;;;5055302;28;20362;-92
2021/03/07 01:59:57;;;;;;;5.95;2.92;;;;;;;;;;5056036;28;20025;-87
2021/03/07 02:02:23;;;;;;;5.75;3.03;;;;;;;;;;5055060;28;20416;-73
2021/03/07 02:04:49;;;;;;;6.75;2.83;;;;;;;;;;5053877;28;20032;-74
2021/03/07 02:07:15;;;;;;;5.95;2.90;;;;;;;;;;5054432;28;20021;-73
2021/03/07 02:09:43;;;;;;;4.53;2.30;;;;;;;;;;5053668;28;20029;-68
2021/03/07 02:12:09;;;;;;;7.15;3.42;;;;;;;;;;5053142;28;20102;-76
2021/03/07 02:14:37;;;;;;;5.50;2.90;;;;;;;;;;5054219;28;20044;-72
2021/03/07 02:17:03;;;;;;;5.35;2.80;;;;;;;;;;5055437;28;20041;-75
2021/03/07 02:19:33;;;;;;;5.20;2.75;;;;;;;;;;5054819;28;20056;-75
2021/03/07 02:22:00;;;;;;;6.45;2.95;;;;;;;;;;5042593;28;20112;-74
2021/03/07 02:24:26;;;;;;;6.65;3.22;;;;;;;;;;5034730;28;20029;-71
2021/03/07 02:26:52;;;;;;;12.40;3.17;;;;;;;;;;5034513;28;20033;-80
2021/03/07 02:29:21;;;;;;;7.75;2.88;;;;;;;;;;5034599;28;20026;-69
2021/03/07 02:31:53;;;;;;;5.40;3.13;;;;;;;;;;5033894;28;20021;-75
2021/03/07 02:34:27;;;;;;;9.00;3.20;;;;;;;;;;5034335;28;20028;-71
2021/03/07 02:36:54;;;;;;;7.55;3.45;;;;;;;;;;5034369;28;20017;-69
2021/03/07 02:39:29;;;;;;;9.63;3.05;;;;;;;;;;5047631;28;20108;-68
2021/03/07 02:41:56;;;;;;;5.05;2.53;;;;;;;;;;5052780;28;20444;-74
2021/03/07 02:44:23;;;;;;;6.65;3.00;;;;;;;;;;5052598;28;20481;-70
2021/03/07 02:46:51;;;;;;;6.47;3.40;;;;;;;;;;5054204;28;20112;-71
2021/03/07 02:49:18;;;;;;;5.90;3.10;;;;;;;;;;5052125;28;20116;-73
2021/03/07 02:51:45;;;;;;;5.93;3.42;;;;;;;;;;5037195;28;20474;-83
2021/03/07 02:54:12;;;;;;;5.43;2.88;;;;;;;;;;5032406;28;20029;-77
2021/03/07 02:56:39;;;;;;;5.35;2.85;;;;;;;;;;5032525;28;20033;-69
2021/03/07 02:59:11;;;;;;;5.32;2.92;;;;;;;;;;5033860;28;20080;-70
2021/03/07 03:01:38;;;;;;;6.75;3.08;;;;;;;;;;5033839;28;20029;-69
2021/03/07 03:04:04;;;;;;;6.22;3.00;;;;;;;;;;5033524;28;20112;-84
2021/03/07 03:06:31;;;;;;;5.75;2.85;;;;;;;;;;5033471;28;20033;-71
2021/03/07 03:08:58;;;;;;;5.97;2.92;;;;;;;;;;5033554;28;20026;-77
2021/03/07 03:11:25;;;;;;;6.20;3.13;;;;;;;;;;5032642;28;20025;-79
2021/03/07 03:13:52;;;;;;;6.75;3.28;;;;;;;;;;5033669;28;20524;-74
2021/03/07 03:16:18;;;;;;;7.05;3.30;;;;;;;;;;5032914;28;20018;-81
2021/03/07 03:18:45;;;;;;;6.63;2.67;;;;;;;;;;5032924;28;20029;-79
2021/03/07 03:21:12;;;;;;;6.03;2.90;;;;;;;;;;5032668;28;20021;-69
2021/03/07 03:23:39;;;;;;;6.50;3.20;;;;;;;;;;5033756;28;20013;-82
2021/03/07 03:26:05;;;;;;;6.35;3.05;;;;;;;;;;5033849;28;20474;-82
2021/03/07 03:28:32;;;;;;;5.10;2.65;;;;;;;;;;5033750;28;20061;-83
2021/03/07 03:30:58;;;;;;;6.07;2.83;;;;;;;;;;5033601;28;20025;-69
2021/03/07 03:33:25;;;;;;;8.05;2.95;;;;;;;;;;5033594;28;20025;-79
2021/03/07 03:35:51;;;;;;;5.72;2.90;;;;;;;;;;5033589;28;20187;-71
2021/03/07 03:38:18;;;;;;;6.20;2.97;;;;;;;;;;5033359;28;20014;-78
2021/03/07 03:40:45;;;;;;;5.80;2.92;;;;;;;;;;5031846;28;20063;-69
2021/03/07 03:43:12;;;;;;;5.72;2.80;;;;;;;;;;5032548;28;20025;-80
2021/03/07 03:45:40;;;;;;;5.57;2.75;;;;;;;;;;5032493;28;20497;-70
2021/03/07 03:48:08;;;;;;;9.90;3.05;;;;;;;;;;5033331;28;20473;-79
2021/03/07 03:50:36;;;;;;;5.90;3.08;;;;;;;;;;5032110;28;20056;-82
2021/03/07 03:53:03;;;;;;;6.03;2.90;;;;;;;;;;5033131;28;20036;-82
2021/03/07 03:55:31;;;;;;;6.47;2.80;;;;;;;;;;5032919;28;20382;-74
2021/03/07 03:57:58;;;;;;;5.65;3.00;;;;;;;;;;5031758;28;20235;-82
2021/03/07 04:00:27;;;;;;;7.53;2.95;;;;;;;;;;5031934;28;20155;-70
2021/03/07 04:02:55;;;;;;;4.50;2.28;;;;;;;;;;5032958;28;20021;-75
2021/03/07 04:05:22;;;;;;;5.22;2.88;;;;;;;;;;5033084;28;20034;-77
2021/03/07 04:07:48;;;;;;;6.47;2.75;;;;;;;;;;5031447;28;20025;-72
2021/03/07 04:10:18;;;;;;;6.20;2.60;;;;;;;;;;5031410;28;20509;-77
2021/03/07 04:12:45;;;;;;;5.50;2.60;;;;;;;;;;5032512;28;20029;-81
2021/03/07 04:15:12;;;;;;;6.13;3.05;;;;;;;;;;5031139;28;20049;-73
2021/03/07 04:17:38;;;;;;;5.60;2.60;;;;;;;;;;5032631;28;20025;-74
2021/03/07 04:20:05;;;;;;;5.03;2.42;;;;;;;;;;5032605;28;20031;-74
2021/03/07 04:22:32;;;;;;;5.57;2.60;;;;;;;;;;5032563;28;20022;-83
2021/03/07 04:24:58;;;;;;;5.78;2.55;;;;;;;;;;5032455;28;20160;-82
2021/03/07 04:27:24;;;;;;;6.05;2.45;;;;;;;;;;5032575;28;20097;-81
2021/03/07 04:29:51;;;;;;;7.70;2.70;;;;;;;;;;5032379;28;20033;-70
2021/03/07 04:32:18;;;;;;;7.20;3.45;;;;;;;;;;5032264;28;20032;-76
2021/03/07 04:34:44;;;;;;;5.75;3.00;;;;;;;;;;5032224;28;20036;-69
2021/03/07 04:37:10;;;;;;;8.23;2.88;;;;;;;;;;5032225;28;20029;-77
2021/03/07 04:39:36;;;;;;;6.28;3.00;;;;;;;;;;5032392;28;20025;-72
2021/03/07 04:42:04;;;;;;;7.28;3.83;;;;;;;;;;5032147;28;20022;-80
2021/03/07 04:44:30;;;;;;;6.88;3.90;;;;;;;;;;5031827;28;20033;-80
2021/03/07 04:46:56;;;;;;;7.88;4.00;;;;;;;;;;5032107;28;20025;-73
2021/03/07 04:49:22;;;;;;;12.93;4.22;;;;;;;;;;5032043;28;20029;-74
2021/03/07 04:51:49;;;;;;;7.07;4.07;;;;;;;;;;5046763;28;20836;-82
2021/03/07 04:54:15;;;;;;;7.97;4.28;;;;;;;;;;5051338;28;20163;-69
2021/03/07 04:56:41;;;;;;;11.13;4.30;;;;;;;;;;5050975;28;20063;-72
2021/03/07 04:59:07;;;;;;;8.10;4.68;;;;;;;;;;5051388;28;20024;-72
2021/03/07 05:01:35;;;;;;;10.27;5.10;;;;;;;;;;5050036;28;20405;-82
2021/03/07 05:04:01;;;;;;;8.70;4.93;;;;;;;;;;5051118;28;20021;-71
2021/03/07 05:06:28;;;;;;;9.15;5.13;;;;;;;;;;5051542;28;20064;-70
2021/03/07 05:08:54;;;;;;;9.52;4.93;;;;;;;;;;5051444;28;20025;-82
2021/03/07 05:11:23;;;;;;;8.00;4.85;;;;;;;;;;5051238;28;20067;-69
2021/03/07 05:13:49;;;;;;;10.52;5.32;;;;;;;;;;5049766;28;20065;-70
2021/03/07 05:16:17;;;;;;;9.10;5.13;;;;;;;;;;5051253;28;20045;-79
2021/03/07 05:18:43;;;;;;;8.02;5.03;;;;;;;;;;5049669;28;20542;-83
2021/03/07 05:21:09;;;;;;;8.00;4.68;;;;;;;;;;5050220;28;20047;-74
2021/03/07 05:23:35;;;;;;;8.85;4.45;;;;;;;;;;5051825;28;20025;-75
2021/03/07 05:26:01;;;;;;;8.75;4.60;;;;;;;;;;5051574;28;20029;-82
2021/03/07 05:28:27;;;;;;;8.32;4.47;;;;;;;;;;5050356;28;20377;-83
2021/03/07 05:30:53;;;;;;;8.82;5.07;;;;;;;;;;5049924;28;20032;-83
2021/03/07 05:33:19;;;;;;;11.93;4.47;;;;;;;;;;5050887;28;20021;-69
2021/03/07 05:35:47;;;;;;;7.95;4.07;;;;;;;;;;5050624;28;20021;-71
2021/03/07 05:38:13;;;;;;;7.38;4.20;;;;;;;;;;5051098;28;20556;-75
2021/03/07 05:40:39;;;;;;;7.32;4.47;;;;;;;;;;5050974;28;20021;-79
2021/03/07 05:43:06;;;;;;;8.40;3.88;;;;;;;;;;5049442;28;20065;-82
2021/03/07 05:45:32;;;;;;;7.95;3.90;;;;;;;;;;5050908;28;20040;-70
2021/03/07 05:47:58;;;;;;;6.70;3.67;;;;;;;;;;5051084;28;20408;-74
2021/03/07 05:50:24;;;;;;;7.65;3.95;;;;;;;;;;5050184;28;20075;-75
2021/03/07 05:52:53;;;;;;;8.77;3.80;;;;;;;;;;5051706;28;20100;-82
2021/03/07 05:55:19;;;;;;;8.23;4.25;;;;;;;;;;5051484;28;20079;-84
2021/03/07 05:57:49;;;;;;;6.85;3.60;;;;;;;;;;5050217;28;20076;-83
2021/03/07 06:00:16;;;;;;;6.72;3.90;;;;;;;;;;5051397;28;20028;-70
2021/03/07 06:02:42;;;;;;;8.43;4.25;;;;;;;;;;5051386;28;20025;-70
2021/03/07 06:05:10;;;;;;;6.95;3.65;;;;;;;;;;5051454;28;20385;-76
2021/03/07 06:07:37;;;;;;;7.47;3.83;;;;;;;;;;5053095;28;20095;-71
2021/03/07 06:10:18;;;;;;;7.88;3.70;;;;;;;;;;5053782;28;20477;-70
2021/03/07 06:12:55;;;;;;;7.63;4.10;;;;;;;;;;5054780;28;20029;-71
2021/03/07 06:15:22;;;;;;;6.38;3.47;;;;;;;;;;5055161;28;20041;-72
2021/03/07 06:17:48;;;;;;;6.80;3.67;;;;;;;;;;5055007;28;20043;-70
2021/03/07 06:20:15;;;;;;;6.20;3.47;;;;;;;;;;5053948;28;20029;-71
2021/03/07 06:22:51;;;;;;;6.65;3.72;;;;;;;;;;5053661;28;20185;-75
2021/03/07 06:25:17;;;;;;;7.78;4.38;;;;;;;;;;5053471;28;20186;-70
2021/03/07 06:27:43;;;;;;;7.97;4.20;;;;;;;;;;5054826;28;20049;-71
2021/03/07 06:30:17;;;;;;;9.88;4.97;;;;;;;;;;5054711;28;20024;-76
2021/03/07 06:32:50;;;;;;;9.05;4.80;;;;;;;;;;5053177;28;20025;-85
2021/03/07 06:35:18;;;;;;;9.15;5.25;;;;;;;;;;5054466;28;20013;-76
2021/03/07 06:38:03;;;;;;;9.73;5.30;;;;;;;;;;5054571;28;20029;-72
2021/03/07 06:40:31;;;;;;;9.00;5.30;;;;;;;;;;5054609;28;20025;-70
2021/03/07 06:42:58;;;;;;;11.02;5.63;;;;;;;;;;5054561;28;20018;-74
2021/03/07 06:45:24;;;;;;;10.32;6.35;;;;;;;;;;5054415;28;20102;-71
2021/03/07 06:47:59;;;;;;;8.40;5.28;;;;;;;;;;5054714;28;20381;-77
2021/03/07 06:50:25;;;;;;;11.23;6.38;;;;;;;;;;5052228;28;20123;-82
2021/03/07 06:52:52;;;;;;;9.82;5.55;;;;;;;;;;5053512;28;20025;-79
2021/03/07 06:55:19;;;;;;;12.27;6.22;;;;;;;;;;5053089;28;20033;-70
2021/03/07 06:57:45;;;;;;;10.95;6.18;;;;;;;;;;5054536;28;20608;-85
2021/03/07 07:00:12;;;;;;;10.18;5.68;;;;;;;;;;5054250;28;20090;-74
2021/03/07 07:02:38;;;;;;;9.90;5.78;;;;;;;;;;5054139;28;20055;-78
2021/03/07 07:05:05;;;;;;;10.65;5.82;;;;;;;;;;5054131;28;20037;-84
2021/03/07 07:07:31;;;;;;;11.02;5.93;;;;;;;;;;5054112;28;20505;-71
2021/03/07 07:10:07;;;;;;;11.60;6.43;;;;;;;;;;5054308;28;20033;-85
2021/03/07 07:12:33;;;;;;;11.02;6.35;;;;;;;;;;5054451;28;20021;-85
2021/03/07 07:15:15;;;;;;;9.63;5.80;;;;;;;;;;5053989;28;20057;-80
2021/03/07 07:17:41;;;;;;;9.23;5.83;;;;;;;;;;5053809;28;20079;-73
2021/03/07 07:20:08;;;;;;;10.75;6.10;;;;;;;;;;5053829;28;20025;-68
2021/03/07 07:22:35;;;;;;;9.98;6.28;;;;;;;;;;5052622;28;20066;-83
2021/03/07 07:25:01;;;;;;;9.93;6.07;;;;;;;;;;5053612;28;20044;-73
2021/03/07 07:27:28;;;;;;;10.43;6.00;;;;;;;;;;5053692;28;20074;-68
2021/03/07 07:29:54;;;;;;;10.10;5.88;;;;;;;;;;5053220;28;20032;-69
2021/03/07 07:32:26;;;;;;;9.75;5.65;;;;;;;;;;5053413;28;20028;-69
2021/03/07 07:34:54;;;;;;;10.40;6.35;;;;;;;;;;5053457;28;20017;-83
2021/03/07 07:37:23;;;;;;;10.48;6.43;;;;;;;;;;5051936;28;20319;-69
2021/03/07 07:39:54;;;;;;;10.13;5.93;;;;;;;;;;5051890;28;20019;-70
2021/03/07 07:42:23;;;;;;;10.25;6.28;;;;;;;;;;5053082;28;20681;-74
2021/03/07 07:44:49;;;;;;;9.18;5.97;;;;;;;;;;5052898;28;20037;-68
2021/03/07 07:47:15;;;;;;;9.27;5.88;;;;;;;;;;5051602;28;20603;-83
2021/03/07 07:49:46;;;;;;;9.90;6.30;;;;;;;;;;5053244;28;20477;-71
2021/03/07 07:52:24;;;;;;;14.10;6.43;;;;;;;;;;5053038;28;20021;-83
2021/03/07 07:54:55;;;;;;;10.88;5.55;;;;;;;;;;5052872;28;20171;-73
2021/03/07 07:57:35;;;;;;;10.10;5.95;;;;;;;;;;5053001;28;20021;-82
2021/03/07 08:00:04;;;;;;;9.82;6.07;;;;;;;;;;5052835;28;20052;-68
2021/03/07 08:02:45;;;;;;;10.20;5.93;;;;;;;;;;5052991;28;20025;-69
2021/03/07 08:05:25;;;;;;;11.63;5.43;;;;;;;;;;5051504;28;20033;-69
2021/03/07 08:07:57;;;;;;;9.52;4.97;;;;;;;;;;5052879;28;20040;-77
2021/03/07 08:10:39;;;;;;;11.77;5.40;;;;;;;;;;5052743;28;20017;-81
2021/03/07 08:13:05;;;;;;;8.70;5.20;;;;;;;;;;5051466;28;20021;-69
2021/03/07 08:15:32;;;;;;;12.35;4.75;;;;;;;;;;5051392;28;20045;-83
2021/03/07 08:17:58;;;;;;;8.13;4.50;;;;;;;;;;5052567;28;20045;-69
2021/03/07 08:20:42;;;;;;;8.50;4.60;;;;;;;;;;5052744;28;20102;-83
2021/03/07 08:23:12;;;;;;;7.47;4.40;;;;;;;;;;5052628;28;20053;-69
2021/03/07 08:25:49;;;;;;;8.07;4.50;;;;;;;;;;5052578;28;20037;-69
2021/03/07 08:28:31;;;;;;;6.93;3.67;;;;;;;;;;5052643;28;20074;-80
2021/03/07 08:30:57;;;;;;;7.30;4.00;;;;;;;;;;5051956;28;20025;-74
2021/03/07 08:33:30;;;;;;;7.65;4.47;;;;;;;;;;5052388;28;20112;-75
2021/03/07 08:36:08;;;;;;;6.95;4.00;;;;;;;;;;5052186;28;20025;-83
2021/03/07 08:38:34;;;;;;;6.70;3.53;;;;;;;;;;5050948;28;20359;-78
2021/03/07 08:41:00;;;;;;;6.68;3.40;;;;;;;;;;5052395;28;20028;-73
2021/03/07 08:43:27;;;;;;;6.28;3.45;;;;;;;;;;5051948;28;20504;-79
2021/03/07 08:46:00;;;;;;;7.10;3.83;;;;;;;;;;5051886;28;20028;-82
2021/03/07 08:48:26;;;;;;;6.35;3.45;;;;;;;;;;5052070;28;20480;-75
2021/03/07 08:50:52;;;;;;;6.97;3.47;;;;;;;;;;5052334;28;20089;-76
2021/03/07 08:53:25;;;;;;;6.97;3.60;;;;;;;;;;5049489;28;20025;-80
2021/03/07 08:55:52;;;;;;;5.97;3.00;;;;;;;;;;5051761;28;20024;-77
2021/03/07 08:58:21;;;;;;;6.32;3.60;;;;;;;;;;5051881;28;20500;-80
2021/03/07 09:00:48;;;;;;;6.07;3.10;;;;;;;;;;5051849;28;20021;-80
2021/03/07 09:03:15;;;;;;;6.13;3.08;;;;;;;;;;5051681;28;20048;-72
2021/03/07 09:05:41;;;;;;;5.40;3.10;;;;;;;;;;5051555;28;20040;-79
2021/03/07 09:08:08;;;;;;;5.82;3.10;;;;;;;;;;5051658;28;20021;-72
2021/03/07 09:10:40;;;;;;;5.63;2.75;;;;;;;;;;5051890;28;20028;-71
2021/03/07 09:13:13;;;;;;;4.50;2.58;;;;;;;;;;5052690;28;20021;-82
2021/03/07 09:15:50;;;;;;;5.07;3.05;;;;;;;;;;5052587;28;20053;-83
2021/03/07 09:18:16;;;;;;;4.97;2.72;;;;;;;;;;5052613;28;20013;-79
2021/03/07 09:20:45;;;;;;;6.05;3.13;;;;;;;;;;5052882;28;20029;-80
2021/03/07 09:23:30;;;;;;;4.90;2.67;;;;;;;;;;5051902;28;20436;-76
2021/03/07 09:25:57;;;;;;;5.63;2.67;;;;;;;;;;5048085;28;20045;-70
2021/03/07 09:28:29;;;;;;;5.28;2.95;;;;;;;;;;5051273;28;20118;-69
2021/03/07 09:30:56;;;;;;;10.18;2.47;;;;;;;;;;5051078;28;20070;-77
2021/03/07 09:33:23;;;;;;;5.22;2.53;;;;;;;;;;5051417;28;20477;-81
2021/03/07 09:35:59;;;;;;;6.57;2.70;;;;;;;;;;5051263;28;20100;-78
2021/03/07 09:38:25;;;;;;;6.75;2.58;;;;;;;;;;5051188;28;20021;-69
2021/03/07 09:40:51;;;;;;;5.10;2.72;;;;;;;;;;5051302;28;20053;-68
2021/03/07 09:43:19;;;;;;;5.28;2.67;;;;;;;;;;5053860;28;20021;-73
2021/03/07 09:45:47;;;;;;;6.22;2.40;;;;;;;;;;5055112;28;20033;-77
2021/03/07 09:48:13;;;;;;;4.82;2.50;;;;;;;;;;5055343;28;20489;-70
2021/03/07 09:50:41;;;;;;;7.45;2.45;;;;;;;;;;5055003;28;20025;-82
2021/03/07 09:53:07;;;;;;;8.40;2.55;;;;;;;;;;5054031;28;20495;-82
2021/03/07 09:55:35;;;;;;;5.35;2.60;;;;;;;;;;5054937;28;20053;-79
2021/03/07 09:58:05;;;;;;;6.85;2.35;;;;;;;;;;5053851;28;20055;-79
2021/03/07 10:00:31;;;;;;;4.35;2.50;;;;;;;;;;5055120;28;20021;-74
2021/03/07 10:02:58;;;;;;;3.63;1.98;;;;;;;;;;5053672;28;20087;-82
2021/03/07 10:05:24;;;;;;;5.20;2.03;;;;;;;;;;5053708;28;20033;-70
2021/03/07 10:07:50;;;;;;;4.88;2.30;;;;;;;;;;5055067;28;20017;-79
2021/03/07 10:10:23;;;;;;;4.70;2.45;;;;;;;;;;5053785;28;20029;-75
2021/03/07 10:12:55;;;;;;;4.53;2.00;;;;;;;;;;5054874;28;20096;-68
2021/03/07 10:15:21;;;;;;;;;;;;;;;;;;5053754;28;20052;-76
2021/03/07 10:17:47;;;;;;;5.57;2.15;;;;;;;;;;5053654;28;19912;-79
2021/03/07 10:20:13;;;;;;;6.63;2.38;;;;;;;;;;5054707;28;20021;-80
2021/03/07 10:22:41;;;;;;;4.22;2.13;;;;;;;;;;5054685;28;20101;-72
2021/03/07 10:25:07;;;;;;;4.78;1.92;;;;;;;;;;5053299;28;20566;-68
2021/03/07 10:27:34;;;;;;;4.03;2.08;;;;;;;;;;5052912;28;20027;-68
2021/03/07 10:30:00;;;;;;;4.95;1.90;;;;;;;;;;5054355;28;20064;-76
2021/03/07 10:32:26;;;;;;;5.38;2.22;;;;;;;;;;5054548;28;20021;-82
2021/03/07 10:34:53;;;;;;;4.25;2.00;;;;;;;;;;5054419;28;20485;-71
2021/03/07 10:37:34;;;;;;;4.65;2.00;;;;;;;;;;5053011;28;20089;-69
2021/03/07 10:40:00;;;;;;;6.45;2.10;;;;;;;;;;5053963;28;20496;-81
2021/03/07 10:42:34;;;;;;;4.50;2.15;;;;;;;;;;5054174;28;20029;-78
2021/03/07 10:45:16;;;;;;;5.13;1.83;;;;;;;;;;5054155;28;20048;-76
2021/03/07 10:47:43;;;;;;;5.13;2.08;;;;;;;;;;5053077;28;20021;-74
2021/03/07 10:50:10;;;;;;;6.15;2.20;;;;;;;;;;5051734;28;20116;-76
2021/03/07 10:52:36;;;;;;;8.25;2.38;;;;;;;;;;5053351;28;20493;-79
2021/03/07 10:55:10;;;;;;;7.40;2.10;;;;;;;;;;5054073;28;20029;-73
2021/03/07 10:57:36;;;;;;;3.72;1.92;;;;;;;;;;5053927;28;20150;-77
2021/03/07 11:00:03;;;;;;;6.03;1.92;;;;;;;;;;5053428;28;20049;-70
2021/03/07 11:02:29;;;;;;;4.30;1.90;;;;;;;;;;5052898;28;20025;-71
2021/03/07 11:04:55;;;;;;;6.70;1.77;;;;;;;;;;5052296;28;20056;-80
2021/03/07 11:07:21;;;;;;;7.60;2.05;;;;;;;;;;5052329;28;20067;-80
2021/03/07 11:09:47;;;;;;;7.05;2.30;;;;;;;;;;5053402;28;20029;-71
2021/03/07 11:12:13;;;;;;;11.63;2.20;;;;;;;;;;5053349;28;20021;-69
2021/03/07 11:14:39;;;;;;;3.85;2.08;;;;;;;;;;5053351;28;20045;-71
2021/03/07 11:17:05;;;;;;;6.97;2.40;;;;;;;;;;5053465;28;20505;-75
2021/03/07 11:19:31;;;;;;;7.90;2.20;;;;;;;;;;5053335;28;20029;-71
2021/03/07 11:21:57;;;;;;;4.68;2.10;;;;;;;;;;5052008;28;20111;-70
2021/03/07 11:24:23;;;;;;;7.25;2.22;;;;;;;;;;5053123;28;20059;-70
2021/03/07 11:26:51;;;;;;;5.78;2.10;;;;;;;;;;5053257;28;20029;-77
2021/03/07 11:29:17;;;;;;;4.00;2.15;;;;;;;;;;5053006;28;20067;-69
2021/03/07 11:31:43;;;;;;;4.25;2.13;;;;;;;;;;5053104;28;20033;-73
2021/03/07 11:34:09;;;;;;;8.90;1.90;;;;;;;;;;5051828;28;20032;-78
2021/03/07 11:36:35;;;;;;;4.53;2.10;;;;;;;;;;5053019;28;20021;-69
2021/03/07 11:39:01;;;;;;;8.35;2.28;;;;;;;;;;5052932;28;20029;-79
2021/03/07 11:41:27;;;;;;;3.70;1.98;;;;;;;;;;5051519;28;20029;-68
2021/03/07 11:43:53;;;;;;;4.13;2.03;;;;;;;;;;5052613;28;20017;-68
2021/03/07 11:46:19;;;;;;;5.18;1.90;;;;;;;;;;5052758;28;20036;-77
2021/03/07 11:48:45;;;;;;;9.88;2.53;;;;;;;;;;5051764;28;20017;-73
2021/03/07 11:51:11;;;;;;;6.53;2.20;;;;;;;;;;5052713;28;20024;-78
2021/03/07 11:53:37;;;;;;;5.55;2.20;;;;;;;;;;5052646;28;20611;-73
2021/03/07 11:56:03;;;;;;;5.38;2.28;;;;;;;;;;5051361;28;20041;-73
2021/03/07 11:58:29;;;;;;;3.72;1.90;;;;;;;;;;5052614;28;20025;-74
2021/03/07 12:00:55;;;;;;;5.38;2.47;;;;;;;;;;5052532;28;20029;-74
2021/03/07 12:03:21;;;;;;;3.97;1.77;;;;;;;;;;5051281;28;20025;-70
2021/03/07 12:05:47;;;;;;;3.90;1.90;;;;;;;;;;5051484;28;20033;-70
2021/03/07 12:08:13;;;;;;;5.78;1.95;;;;;;;;;;5052259;28;20032;-68
2021/03/07 12:10:40;;;;;;;4.38;2.30;;;;;;;;;;5052102;28;20028;-68
2021/03/07 12:13:06;;;;;;;4.10;2.00;;;;;;;;;;5052134;28;20036;-77
2021/03/07 12:15:32;;;;;;;4.50;2.20;;;;;;;;;;5051946;28;20175;-70
2021/03/07 12:17:58;;;;;;;3.42;1.83;;;;;;;;;;5050999;28;20074;-67
2021/03/07 12:20:24;;;;;;;4.63;1.80;;;;;;;;;;5052162;28;20036;-67
2021/03/07 12:22:51;;;;;;;4.43;2.20;;;;;;;;;;5050737;28;20497;-78
2021/03/07 12:25:17;;;;;;;4.28;2.25;;;;;;;;;;5052038;28;20043;-68
2021/03/07 12:27:43;;;;;;;5.15;2.38;;;;;;;;;;5051941;28;20021;-71
2021/03/07 12:30:10;;;;;;;4.22;1.98;;;;;;;;;;5051893;28;20557;-73
2021/03/07 12:32:36;;;;;;;4.90;2.03;;;;;;;;;;5050452;28;20507;-69
2021/03/07 12:35:02;;;;;;;3.97;1.90;;;;;;;;;;5050477;28;20445;-69
2021/03/07 12:37:28;;;;;;;4.15;2.30;;;;;;;;;;5051781;28;20021;-72
2021/03/07 12:39:54;;;;;;;6.47;2.20;;;;;;;;;;5051525;28;20021;-76
2021/03/07 12:42:20;;;;;;;4.63;2.10;;;;;;;;;;5051566;28;20021;-75
2021/03/07 12:44:46;;;;;;;4.20;2.20;;;;;;;;;;5050309;28;20482;-70
2021/03/07 12:47:12;;;;;;;4.35;2.30;;;;;;;;;;5050450;28;20021;-68
2021/03/07 12:49:39;;;;;;;5.53;2.45;;;;;;;;;;5049432;28;20090;-69
2021/03/07 12:52:05;;;;;;;5.05;2.22;;;;;;;;;;5051354;28;20021;-69
2021/03/07 12:54:31;;;;;;;4.75;2.17;;;;;;;;;;5051361;28;20032;-68
2021/03/07 12:56:57;;;;;;;3.85;2.15;;;;;;;;;;5049941;28;20024;-74
2021/03/07 12:59:23;;;;;;;4.15;2.10;;;;;;;;;;5050303;28;20074;-68
2021/03/07 13:01:49;;;;;;;5.10;2.60;;;;;;;;;;5051414;28;20044;-74
2021/03/07 13:04:15;;;;;;;7.18;2.60;;;;;;;;;;5050316;28;20032;-68
2021/03/07 13:06:41;;;;;;;4.70;2.25;;;;;;;;;;5051460;28;20025;-78
2021/03/07 13:09:07;;;;;;;5.45;2.70;;;;;;;;;;5049952;28;20629;-70
2021/03/07 13:11:33;;;;;;;5.43;2.40;;;;;;;;;;5051033;28;20107;-72
2021/03/07 13:13:59;;;;;;;4.75;2.50;;;;;;;;;;5051246;28;20040;-73
2021/03/07 13:16:25;;;;;;;6.25;2.65;;;;;;;;;;5051154;28;20032;-70
2021/03/07 13:18:51;;;;;;;4.90;2.08;;;;;;;;;;5051406;28;20021;-70
2021/03/07 13:21:18;;;;;;;5.28;2.97;;;;;;;;;;5051143;28;20100;-68
2021/03/07 13:23:44;;;;;;;5.20;2.60;;;;;;;;;;5051284;28;20481;-67
2021/03/07 13:26:10;;;;;;;5.68;3.00;;;;;;;;;;5050863;28;20432;-77
2021/03/07 13:28:36;;;;;;;5.22;2.80;;;;;;;;;;5051281;28;20025;-76
2021/03/07 13:31:02;;;;;;;5.95;3.05;;;;;;;;;;5051200;28;20037;-74
2021/03/07 13:33:28;;;;;;;4.95;2.60;;;;;;;;;;5051212;28;20469;-67
2021/03/07 13:35:54;;;;;;;4.93;2.65;;;;;;;;;;5051212;28;20036;-72
2021/03/07 13:38:20;;;;;;;5.22;2.63;;;;;;;;;;5051044;28;20059;-70
2021/03/07 13:40:46;;;;;;;5.57;3.00;;;;;;;;;;5049555;28;20547;-69
2021/03/07 13:43:12;;;;;;;5.60;3.08;;;;;;;;;;5050982;28;20048;-69
2021/03/07 13:45:39;;;;;;;5.82;3.25;;;;;;;;;;5050998;28;20033;-69
2021/03/07 13:48:05;;;;;;;5.72;2.80;;;;;;;;;;5058303;28;20052;-80
2021/03/07 13:50:32;;;;;;;10.48;3.08;;;;;;;;;;5052066;28;20021;-77
2021/03/07 13:52:58;;;;;;;9.25;3.45;;;;;;;;;;5049817;28;20013;-67
2021/03/07 13:55:25;;;;;;;8.88;3.13;;;;;;;;;;5050051;28;20147;-68
2021/03/07 13:57:51;;;;;;;7.70;3.67;;;;;;;;;;5049185;28;20009;-71
2021/03/07 14:00:17;;;;;;;6.60;4.00;;;;;;;;;;5050274;28;20090;-78
2021/03/07 14:02:44;;;;;;;9.98;5.05;;;;;;;;;;5050673;28;20017;-78
2021/03/07 14:05:11;;;;;;;8.93;4.90;;;;;;;;;;5050972;28;20029;-81
2021/03/07 14:07:37;;;;;;;7.47;4.38;;;;;;;;;;5047586;28;20354;-74
2021/03/07 14:10:05;;;;;;;9.52;3.53;;;;;;;;;;5050408;28;20470;-71
2021/03/07 14:12:31;;;;;;;13.20;5.57;;;;;;;;;;5050296;28;20044;-69
2021/03/07 14:14:57;;;;;;;16.52;4.38;;;;;;;;;;5048156;28;20048;-69
2021/03/07 14:17:23;;;;;;;11.07;5.85;;;;;;;;;;5050752;28;20028;-71
2021/03/07 14:19:49;;;;;;;13.50;6.45;;;;;;;;;;5051181;28;20481;-80
2021/03/07 14:22:15;;;;;;;12.68;6.28;;;;;;;;;;5051801;28;20440;-82
2021/03/07 14:24:41;;;;;;;10.60;6.90;;;;;;;;;;5050423;28;20056;-81
2021/03/07 14:27:07;;;;;;;10.82;6.25;;;;;;;;;;5051224;28;20017;-69
2021/03/07 14:29:34;;;;;;;12.32;6.28;;;;;;;;;;5052835;28;20021;-85
2021/03/07 14:32:00;;;;;;;11.30;6.00;;;;;;;;;;5051624;28;20032;-70
2021/03/07 14:34:26;;;;;;;17.40;6.18;;;;;;;;;;5050336;28;20025;-71
2021/03/07 14:36:52;;;;;;;11.27;5.80;;;;;;;;;;5050526;28;20021;-76
2021/03/07 14:39:19;;;;;;;12.70;5.82;;;;;;;;;;5035873;28;20018;-90
2021/03/07 14:41:45;;;;;;;9.68;4.75;;;;;;;;;;5051312;28;20017;-68
2021/03/07 14:44:11;;;;;;;10.75;5.60;;;;;;;;;;5053085;28;20106;-73
2021/03/07 14:46:37;;;;;;;18.27;5.45;;;;;;;;;;5055436;28;20037;-81